createdAt,value
2022-10-18T00:01:25.683Z,9.50
2022-10-18T00:03:52.579Z,9.50
2022-10-18T00:06:19.507Z,9.40
2022-10-18T00:08:46.411Z,9.40
2022-10-18T00:11:13.285Z,9.30
2022-10-18T00:13:40.179Z,9.30
2022-10-18T00:16:11.457Z,9.30
2022-10-18T00:18:38.421Z,9.30
2022-10-18T00:21:12.498Z,9.20
2022-10-18T00:23:39.489Z,9.20
2022-10-18T00:26:14.139Z,9.20
2022-10-18T00:28:41.269Z,9.20
2022-10-18T00:31:15.654Z,9.20
2022-10-18T00:33:43.937Z,9.10
2022-10-18T00:36:11.652Z,9.10
2022-10-18T00:38:38.704Z,9.10
2022-10-18T00:41:06.635Z,9.10
2022-10-18T00:43:33.488Z,9.00
2022-10-18T00:46:00.372Z,9.00
2022-10-18T00:48:27.203Z,9.00
2022-10-18T00:50:54.142Z,8.90
2022-10-18T00:53:22.205Z,8.90
2022-10-18T00:55:49.106Z,8.90
2022-10-18T00:58:16.897Z,8.90
2022-10-18T01:00:43.799Z,8.90
2022-10-18T01:03:10.639Z,8.90
2022-10-18T01:05:40.896Z,8.90
2022-10-18T01:08:19.726Z,8.80
2022-10-18T01:11:17.526Z,8.80
2022-10-18T01:14:08.298Z,8.80
2022-10-18T01:16:39.657Z,8.80
2022-10-18T01:19:18.998Z,8.70
2022-10-18T01:21:50.679Z,8.80
2022-10-18T01:24:36.542Z,8.70
2022-10-18T01:27:37.723Z,8.70
2022-10-18T01:30:28.962Z,8.70
2022-10-18T01:32:59.941Z,8.70
2022-10-18T01:35:30.835Z,8.60
2022-10-18T01:37:59.474Z,8.60
2022-10-18T01:40:26.325Z,8.60
2022-10-18T01:42:53.250Z,8.60
2022-10-18T01:45:20.148Z,8.50
2022-10-18T01:47:47.046Z,8.50
2022-10-18T01:50:14.042Z,8.50
2022-10-18T01:52:50.580Z,8.50
2022-10-18T01:55:17.857Z,8.50
2022-10-18T01:58:11.043Z,8.40
2022-10-18T02:00:42.442Z,8.40
2022-10-18T02:03:21.363Z,8.40
2022-10-18T02:06:09.826Z,8.30
2022-10-18T02:08:47.526Z,8.30
2022-10-18T02:11:14.941Z,8.30
2022-10-18T02:14:03.334Z,8.20
2022-10-18T02:17:06.671Z,8.20
2022-10-18T02:19:39.490Z,8.20
2022-10-18T02:22:07.440Z,8.10
2022-10-18T02:24:36.029Z,8.10
2022-10-18T02:27:02.936Z,8.10
2022-10-18T02:29:30.151Z,8.10
2022-10-18T02:32:10.445Z,8.10
2022-10-18T02:34:48.367Z,8.00
2022-10-18T02:37:15.426Z,8.00
2022-10-18T02:39:49.048Z,8.00
2022-10-18T02:42:15.965Z,8.00
2022-10-18T02:44:42.837Z,8.00
2022-10-18T02:47:10.715Z,7.90
2022-10-18T02:49:37.580Z,7.90
2022-10-18T02:52:04.574Z,7.90
2022-10-18T02:54:31.494Z,7.90
2022-10-18T02:56:58.360Z,7.90
2022-10-18T02:59:25.229Z,7.90
2022-10-18T03:01:52.183Z,7.90
2022-10-18T03:04:19.193Z,7.80
2022-10-18T03:06:46.222Z,7.80
2022-10-18T03:09:13.067Z,7.80
2022-10-18T03:11:39.910Z,7.80
2022-10-18T03:14:06.794Z,7.80
2022-10-18T03:16:34.348Z,7.70
2022-10-18T03:19:01.291Z,7.70
2022-10-18T03:21:28.146Z,7.70
2022-10-18T03:23:55.221Z,7.60
2022-10-18T03:26:22.133Z,7.60
2022-10-18T03:28:49.158Z,7.60
2022-10-18T03:31:16.066Z,7.60
2022-10-18T03:33:42.932Z,7.60
2022-10-18T03:36:10.045Z,7.50
2022-10-18T03:38:36.980Z,7.50
2022-10-18T03:41:03.983Z,7.50
2022-10-18T03:43:30.905Z,7.50
2022-10-18T03:45:57.813Z,7.50
2022-10-18T03:48:24.711Z,7.50
2022-10-18T03:50:51.578Z,7.50
2022-10-18T03:53:18.470Z,7.40
2022-10-18T03:55:45.290Z,7.40
2022-10-18T03:58:12.149Z,7.40
2022-10-18T04:00:38.981Z,7.40
2022-10-18T04:03:05.870Z,7.30
2022-10-18T04:05:32.790Z,7.30
2022-10-18T04:07:59.698Z,7.30
2022-10-18T04:10:26.593Z,7.30
2022-10-18T04:12:53.438Z,7.30
2022-10-18T04:15:20.452Z,7.30
2022-10-18T04:17:47.461Z,7.20
2022-10-18T04:20:14.417Z,7.20
2022-10-18T04:22:41.318Z,7.20
2022-10-18T04:25:08.274Z,7.20
2022-10-18T04:27:35.969Z,7.20
2022-10-18T04:30:03.001Z,7.10
2022-10-18T04:32:29.945Z,7.10
2022-10-18T04:34:56.827Z,7.10
2022-10-18T04:37:23.700Z,7.10
2022-10-18T04:39:53.489Z,7.10
2022-10-18T04:42:21.152Z,7.10
2022-10-18T04:44:48.124Z,7.00
2022-10-18T04:47:15.215Z,7.00
2022-10-18T04:49:42.118Z,7.00
2022-10-18T04:52:09.265Z,7.00
2022-10-18T04:54:36.238Z,7.00
2022-10-18T04:57:03.230Z,7.00
2022-10-18T04:59:30.095Z,7.00
2022-10-18T05:01:57.127Z,7.00
2022-10-18T05:04:24.134Z,7.00
2022-10-18T05:06:51.042Z,7.00
2022-10-18T05:09:18.015Z,7.00
2022-10-18T05:11:44.866Z,6.90
2022-10-18T05:14:11.773Z,6.90
2022-10-18T05:16:38.850Z,6.90
2022-10-18T05:19:05.960Z,6.90
2022-10-18T05:21:33.139Z,6.90
2022-10-18T05:24:00.050Z,6.90
2022-10-18T05:26:27.134Z,6.90
2022-10-18T05:28:54.033Z,6.90
2022-10-18T05:31:21.482Z,6.90
2022-10-18T05:33:48.328Z,6.90
2022-10-18T05:36:15.234Z,6.90
2022-10-18T05:38:43.044Z,6.90
2022-10-18T05:41:10.433Z,6.80
2022-10-18T05:43:37.446Z,6.80
2022-10-18T05:46:07.248Z,6.80
2022-10-18T05:48:36.247Z,6.80
2022-10-18T05:51:03.194Z,6.80
2022-10-18T05:53:38.041Z,6.80
2022-10-18T05:56:06.295Z,6.80
2022-10-18T05:58:33.229Z,6.80
2022-10-18T06:01:03.868Z,6.70
2022-10-18T06:03:31.180Z,6.80
2022-10-18T06:06:08.642Z,6.70
2022-10-18T06:08:35.983Z,6.70
2022-10-18T06:11:07.740Z,6.70
2022-10-18T06:13:34.787Z,6.70
2022-10-18T06:16:01.685Z,6.70
2022-10-18T06:18:29.927Z,6.70
2022-10-18T06:20:58.256Z,6.70
2022-10-18T06:23:26.134Z,6.70
2022-10-18T06:25:53.062Z,6.70
2022-10-18T06:28:20.034Z,6.70
2022-10-18T06:30:46.936Z,6.70
2022-10-18T06:33:13.831Z,6.70
2022-10-18T06:35:40.783Z,6.60
2022-10-18T06:38:07.688Z,6.70
2022-10-18T06:40:38.264Z,6.70
2022-10-18T06:43:20.630Z,6.70
2022-10-18T06:45:49.106Z,6.70
2022-10-18T06:48:16.495Z,6.70
2022-10-18T06:50:43.481Z,6.70
2022-10-18T06:53:10.564Z,6.70
2022-10-18T06:55:37.479Z,6.80
2022-10-18T06:58:04.394Z,6.80
2022-10-18T07:00:31.402Z,6.90
2022-10-18T07:02:58.480Z,6.90
2022-10-18T07:05:25.596Z,6.90
2022-10-18T07:07:55.676Z,7.00
2022-10-18T07:10:24.164Z,7.00
2022-10-18T07:12:53.463Z,7.00
2022-10-18T07:15:24.238Z,7.10
2022-10-18T07:17:51.269Z,7.10
2022-10-18T07:20:18.228Z,7.20
2022-10-18T07:22:45.143Z,7.30
2022-10-18T07:25:11.997Z,7.30
2022-10-18T07:27:40.178Z,7.30
2022-10-18T07:30:07.747Z,7.40
2022-10-18T07:32:34.659Z,7.50
2022-10-18T07:35:02.544Z,7.50
2022-10-18T07:37:30.310Z,7.60
2022-10-18T07:39:57.315Z,7.60
2022-10-18T07:42:24.811Z,7.70
2022-10-18T07:44:51.847Z,7.80
2022-10-18T07:47:18.829Z,7.90
2022-10-18T07:49:45.821Z,8.00
2022-10-18T07:52:12.723Z,8.10
2022-10-18T07:54:39.721Z,8.20
2022-10-18T07:57:06.634Z,8.20
2022-10-18T07:59:33.529Z,8.20
2022-10-18T08:02:00.485Z,8.30
2022-10-18T08:04:27.423Z,8.30
2022-10-18T08:06:54.261Z,8.40
2022-10-18T08:09:21.169Z,8.40
2022-10-18T08:11:48.055Z,8.40
2022-10-18T08:14:15.479Z,8.50
2022-10-18T08:16:42.372Z,8.50
2022-10-18T08:19:09.294Z,8.50
2022-10-18T08:21:36.165Z,8.60
2022-10-18T08:24:03.120Z,8.60
2022-10-18T08:26:30.038Z,8.60
2022-10-18T08:29:17.724Z,8.70
2022-10-18T08:31:43.743Z,8.70
2022-10-18T08:34:10.609Z,8.80
2022-10-18T08:36:37.769Z,8.80
2022-10-18T08:39:04.671Z,8.90
2022-10-18T08:41:41.858Z,9.00
2022-10-18T08:44:15.983Z,9.10
2022-10-18T08:46:48.795Z,9.10
2022-10-18T08:49:52.108Z,9.30
2022-10-18T08:52:45.950Z,9.40
2022-10-18T08:55:25.103Z,9.50
2022-10-18T08:57:52.165Z,9.60
2022-10-18T09:00:34.559Z,9.70
2022-10-18T09:03:04.791Z,9.90
2022-10-18T09:05:54.902Z,10.10
2022-10-18T09:08:35.661Z,10.20
2022-10-18T09:11:24.911Z,10.40
2022-10-18T09:14:17.704Z,10.60
2022-10-18T09:16:54.474Z,10.70
2022-10-18T09:19:55.153Z,10.90
2022-10-18T09:22:36.669Z,11.10
2022-10-18T09:25:26.930Z,11.30
2022-10-18T09:27:55.977Z,11.40
2022-10-18T09:31:00.434Z,11.50
2022-10-18T09:33:48.945Z,11.70
2022-10-18T09:36:33.710Z,11.70
2022-10-18T09:39:19.075Z,11.80
2022-10-18T09:42:03.802Z,11.90
2022-10-18T09:44:36.100Z,11.90
2022-10-18T09:47:18.631Z,12.00
2022-10-18T09:49:56.391Z,12.20
2022-10-18T09:52:34.921Z,12.30
2022-10-18T09:55:05.662Z,12.30
2022-10-18T09:57:38.090Z,12.40
2022-10-18T10:00:05.591Z,12.50
2022-10-18T10:02:32.470Z,12.60
2022-10-18T10:04:59.489Z,12.50
2022-10-18T10:07:35.151Z,12.50
2022-10-18T10:10:08.775Z,12.60
2022-10-18T10:12:37.634Z,12.70
2022-10-18T10:15:20.744Z,12.90
2022-10-18T10:18:04.310Z,13.00
2022-10-18T10:20:42.819Z,13.10
2022-10-18T10:23:14.761Z,13.10
2022-10-18T10:25:41.708Z,13.10
2022-10-18T10:28:26.646Z,13.20
2022-10-18T10:30:53.674Z,13.20
2022-10-18T10:33:38.976Z,13.30
2022-10-18T10:36:08.662Z,13.40
2022-10-18T10:38:35.641Z,13.50
2022-10-18T10:41:02.494Z,13.50
2022-10-18T10:43:40.236Z,13.50
2022-10-18T10:46:14.484Z,13.50
2022-10-18T10:48:45.729Z,13.50
2022-10-18T10:51:12.659Z,13.50
2022-10-18T10:53:42.827Z,13.50
2022-10-18T10:56:16.358Z,13.60
2022-10-18T10:58:43.226Z,13.70
2022-10-18T11:01:30.856Z,13.90
2022-10-18T11:04:02.628Z,14.00
2022-10-18T11:06:54.031Z,14.00
2022-10-18T11:09:49.923Z,14.10
2022-10-18T11:12:49.415Z,14.30
2022-10-18T11:15:22.496Z,14.40
2022-10-18T11:18:08.123Z,14.50
2022-10-18T11:20:41.381Z,14.50
2022-10-18T11:23:11.936Z,14.50
2022-10-18T11:25:54.348Z,14.50
2022-10-18T11:28:34.767Z,14.60
2022-10-18T11:31:10.418Z,14.70
2022-10-18T11:34:09.699Z,14.80
2022-10-18T11:36:45.398Z,14.80
2022-10-18T11:39:44.902Z,14.90
2022-10-18T11:42:17.927Z,15.00
2022-10-18T11:45:26.183Z,15.00
2022-10-18T11:47:58.273Z,15.00
2022-10-18T11:50:27.834Z,15.00
2022-10-18T11:53:04.425Z,15.10
2022-10-18T11:55:46.477Z,15.20
2022-10-18T11:58:18.877Z,15.20
2022-10-18T12:01:06.938Z,15.30
2022-10-18T12:04:17.922Z,15.30
2022-10-18T12:06:46.997Z,15.40
2022-10-18T12:09:19.762Z,15.40
2022-10-18T12:12:14.722Z,15.40
2022-10-18T12:14:50.221Z,15.50
2022-10-18T12:17:44.006Z,15.50
2022-10-18T12:20:18.564Z,15.60
2022-10-18T12:22:54.416Z,15.60
2022-10-18T12:25:21.594Z,15.60
2022-10-18T12:28:32.692Z,15.60
2022-10-18T12:31:22.875Z,15.50
2022-10-18T12:33:53.118Z,15.60
2022-10-18T12:36:22.579Z,15.70
2022-10-18T12:39:00.393Z,15.70
2022-10-18T12:41:32.145Z,15.80
2022-10-18T12:44:01.449Z,15.80
2022-10-18T12:46:43.872Z,15.80
2022-10-18T12:49:11.953Z,15.90
2022-10-18T12:51:59.822Z,15.80
2022-10-18T12:54:36.962Z,15.80
2022-10-18T12:57:17.513Z,15.80
2022-10-18T12:59:44.418Z,15.90
2022-10-18T13:02:30.008Z,15.90
2022-10-18T13:07:44.800Z,16.10
2022-10-18T13:10:12.894Z,16.20
2022-10-18T13:12:42.822Z,16.20
2022-10-18T13:15:39.932Z,16.20
2022-10-18T13:18:21.664Z,16.20
2022-10-18T13:21:10.290Z,16.20
2022-10-18T13:24:03.370Z,16.20
2022-10-18T13:27:24.306Z,16.20
2022-10-18T13:30:18.644Z,16.20
2022-10-18T13:33:09.627Z,16.30
2022-10-18T13:35:46.208Z,16.30
2022-10-18T13:38:31.166Z,16.30
2022-10-18T13:41:11.068Z,16.30
2022-10-18T13:43:53.349Z,16.30
2022-10-18T13:46:20.745Z,16.30
2022-10-18T13:48:52.572Z,16.20
2022-10-18T13:51:26.521Z,16.20
2022-10-18T13:54:02.224Z,16.20
2022-10-18T13:56:37.754Z,16.20
2022-10-18T13:59:16.174Z,16.20
2022-10-18T14:02:04.185Z,16.30
2022-10-18T14:05:11.153Z,16.20
2022-10-18T14:07:48.982Z,16.20
2022-10-18T14:10:43.809Z,16.20
2022-10-18T14:13:20.523Z,16.20
2022-10-18T14:15:52.031Z,16.30
2022-10-18T14:18:23.948Z,16.20
2022-10-18T14:21:12.438Z,16.20
2022-10-18T14:23:44.825Z,16.20
2022-10-18T14:26:16.299Z,16.30
2022-10-18T14:29:00.303Z,16.30
2022-10-18T14:31:27.817Z,16.30
2022-10-18T14:33:57.924Z,16.30
2022-10-18T14:36:37.794Z,16.30
2022-10-18T14:39:05.778Z,16.30
2022-10-18T14:41:34.036Z,16.20
2022-10-18T14:44:19.390Z,16.20
2022-10-18T14:46:49.241Z,16.10
2022-10-18T14:49:16.271Z,16.10
2022-10-18T14:51:44.111Z,16.10
2022-10-18T14:54:17.843Z,16.10
2022-10-18T14:56:44.879Z,16.00
2022-10-18T14:59:25.948Z,16.00
2022-10-18T15:01:56.023Z,16.10
2022-10-18T15:04:27.778Z,16.10
2022-10-18T15:06:55.633Z,16.10
2022-10-18T15:09:22.607Z,16.10
2022-10-18T15:11:49.502Z,16.10
2022-10-18T15:14:18.299Z,16.00
2022-10-18T15:16:45.342Z,16.00
2022-10-18T15:19:15.280Z,15.90
2022-10-18T15:22:27.204Z,15.90
2022-10-18T15:25:05.930Z,15.90
2022-10-18T15:27:35.642Z,15.80
2022-10-18T15:30:36.235Z,15.70
2022-10-18T15:33:04.237Z,15.70
2022-10-18T15:35:32.620Z,15.60
2022-10-18T15:38:14.484Z,15.50
2022-10-18T15:40:42.104Z,15.50
2022-10-18T15:43:24.417Z,15.40
2022-10-18T15:46:01.527Z,15.40
2022-10-18T15:48:37.245Z,15.40
2022-10-18T15:51:32.414Z,15.30
2022-10-18T15:53:59.317Z,15.30
2022-10-18T15:56:31.579Z,15.20
2022-10-18T15:58:59.575Z,15.10
2022-10-18T16:01:36.422Z,15.10
2022-10-18T16:04:18.235Z,15.00
2022-10-18T16:06:45.106Z,15.00
2022-10-18T16:09:15.298Z,15.00
2022-10-18T16:11:42.189Z,14.90
2022-10-18T16:14:09.084Z,14.90
2022-10-18T16:16:35.980Z,14.90
2022-10-18T16:19:03.439Z,14.90
2022-10-18T16:21:38.157Z,14.80
2022-10-18T16:24:05.503Z,14.80
2022-10-18T16:26:32.524Z,14.70
2022-10-18T16:28:59.694Z,14.70
2022-10-18T16:31:28.211Z,14.70
2022-10-18T16:33:55.401Z,14.60
2022-10-18T16:36:29.207Z,14.50
2022-10-18T16:38:56.896Z,14.50
2022-10-18T16:41:23.787Z,14.40
2022-10-18T16:43:51.067Z,14.40
2022-10-18T16:46:27.508Z,14.30
2022-10-18T16:48:54.448Z,14.20
2022-10-18T16:51:21.500Z,14.20
2022-10-18T16:53:48.605Z,14.10
2022-10-18T16:56:23.215Z,14.00
2022-10-18T16:58:50.282Z,14.00
2022-10-18T17:01:19.260Z,13.90
2022-10-18T17:03:46.243Z,13.90
2022-10-18T17:06:26.983Z,13.90
2022-10-18T17:08:54.193Z,13.90
2022-10-18T17:11:21.760Z,13.80
2022-10-18T17:13:48.857Z,13.80
2022-10-18T17:19:16.145Z,13.70
2022-10-18T17:21:43.004Z,13.70
2022-10-18T17:24:09.984Z,13.70
2022-10-18T17:26:36.948Z,13.70
2022-10-18T17:29:05.892Z,13.60
2022-10-18T17:31:33.084Z,13.60
2022-10-18T17:34:01.899Z,13.60
2022-10-18T17:36:30.091Z,13.50
2022-10-18T17:38:57.226Z,13.50
2022-10-18T17:41:24.171Z,13.50
2022-10-18T17:43:51.097Z,13.50
2022-10-18T17:46:18.202Z,13.40
2022-10-18T17:48:45.403Z,13.40
2022-10-18T17:51:14.048Z,13.30
2022-10-18T17:53:40.962Z,13.30
2022-10-18T17:56:08.094Z,13.30
2022-10-18T17:58:35.115Z,13.30
2022-10-18T18:01:15.021Z,13.30
2022-10-18T18:03:42.019Z,13.20
2022-10-18T18:06:33.608Z,13.20
2022-10-18T18:09:02.081Z,13.20
2022-10-18T18:11:29.512Z,13.10
2022-10-18T18:13:56.662Z,13.10
2022-10-18T18:16:25.505Z,13.00
2022-10-18T18:18:53.236Z,13.00
2022-10-18T18:21:20.150Z,12.90
2022-10-18T18:23:47.103Z,12.90
2022-10-18T18:26:14.102Z,12.90
2022-10-18T18:28:41.222Z,12.90
2022-10-18T18:31:09.397Z,12.90
2022-10-18T18:33:36.801Z,12.90
2022-10-18T18:36:04.966Z,12.90
2022-10-18T18:38:31.897Z,12.90
2022-10-18T18:41:13.605Z,12.90
2022-10-18T18:43:42.678Z,12.90
2022-10-18T18:46:09.782Z,12.90
2022-10-18T18:48:36.827Z,12.90
2022-10-18T18:51:04.676Z,12.90
2022-10-18T18:53:32.109Z,12.90
2022-10-18T18:56:07.307Z,12.90
2022-10-18T18:58:34.851Z,12.80
2022-10-18T19:01:23.280Z,12.90
2022-10-18T19:03:51.571Z,12.80
2022-10-18T19:06:22.751Z,12.80
2022-10-18T19:08:50.637Z,12.70
2022-10-18T19:11:19.410Z,12.70
2022-10-18T19:13:47.125Z,12.60
2022-10-18T19:16:59.703Z,12.60
2022-10-18T19:19:28.217Z,12.60
2022-10-18T19:22:00.307Z,12.60
2022-10-18T19:24:29.001Z,12.60
2022-10-18T19:27:01.345Z,12.50
2022-10-18T19:29:30.395Z,12.60
2022-10-18T19:31:59.472Z,12.60
2022-10-18T19:34:27.843Z,12.60
2022-10-18T19:36:55.330Z,12.60
2022-10-18T19:39:32.004Z,12.60
2022-10-18T19:42:00.011Z,12.60
2022-10-18T19:44:32.038Z,12.60
2022-10-18T19:46:59.157Z,12.60
2022-10-18T19:49:26.324Z,12.60
2022-10-18T19:51:53.235Z,12.50
2022-10-18T19:54:20.216Z,12.50
2022-10-18T19:56:47.090Z,12.50
2022-10-18T19:59:15.365Z,12.60
2022-10-18T20:01:42.710Z,12.60
2022-10-18T20:04:10.008Z,12.60
2022-10-18T20:06:37.458Z,12.60
2022-10-18T20:09:05.110Z,12.60
2022-10-18T20:11:32.261Z,12.60
2022-10-18T20:13:59.831Z,12.50
2022-10-18T20:16:28.806Z,12.50
2022-10-18T20:19:13.886Z,12.50
2022-10-18T20:21:40.861Z,12.50
2022-10-18T20:24:07.923Z,12.50
2022-10-18T20:26:35.968Z,12.50
2022-10-18T20:29:03.170Z,12.50
2022-10-18T20:31:35.659Z,12.50
2022-10-18T20:34:03.952Z,12.40
2022-10-18T20:36:31.524Z,12.40
2022-10-18T20:38:58.701Z,12.50
2022-10-18T20:41:33.839Z,12.50
2022-10-18T20:44:08.546Z,12.50
2022-10-18T20:46:36.647Z,12.50
2022-10-18T20:49:04.685Z,12.50
2022-10-18T20:51:33.713Z,12.50
2022-10-18T20:54:01.423Z,12.50
2022-10-18T20:56:28.445Z,12.50
2022-10-18T20:58:56.745Z,12.50
2022-10-18T21:01:28.203Z,12.50
2022-10-18T21:03:56.065Z,12.50
2022-10-18T21:06:27.573Z,12.50
2022-10-18T21:08:55.665Z,12.50
2022-10-18T21:11:22.674Z,12.50
2022-10-18T21:13:53.701Z,12.50
2022-10-18T21:16:20.797Z,12.50
2022-10-18T21:18:47.743Z,12.50
2022-10-18T21:21:19.256Z,12.50
2022-10-18T21:23:47.414Z,12.50
2022-10-18T21:26:27.371Z,12.50
2022-10-18T21:28:54.779Z,12.50
2022-10-18T21:31:22.981Z,12.50
2022-10-18T21:33:57.367Z,12.50
2022-10-18T21:36:24.648Z,12.50
2022-10-18T21:38:51.816Z,12.50
2022-10-18T21:41:19.373Z,12.50
2022-10-18T21:43:48.151Z,12.60
2022-10-18T21:46:16.086Z,12.60
2022-10-18T21:48:44.602Z,12.50
2022-10-18T21:51:11.957Z,12.50
2022-10-18T21:53:39.077Z,12.50
2022-10-18T21:56:07.696Z,12.50
2022-10-18T21:58:37.657Z,12.60
2022-10-18T22:01:13.718Z,12.60
2022-10-18T22:03:41.029Z,12.50
2022-10-18T22:06:13.973Z,12.50
2022-10-18T22:08:42.000Z,12.50
2022-10-18T22:11:09.227Z,12.50
2022-10-18T22:13:36.101Z,12.50
2022-10-18T22:16:03.700Z,12.50
2022-10-18T22:18:30.632Z,12.60
2022-10-18T22:20:59.126Z,12.50
2022-10-18T22:23:31.466Z,12.50
2022-10-18T22:26:05.826Z,12.50
2022-10-18T22:28:32.787Z,12.50
2022-10-18T22:30:59.821Z,12.40
2022-10-18T22:33:26.805Z,12.40
2022-10-18T22:35:53.816Z,12.40
2022-10-18T22:38:20.682Z,12.40
2022-10-18T22:40:47.559Z,12.40
2022-10-18T22:43:14.439Z,12.40
2022-10-18T22:45:41.643Z,12.30
2022-10-18T22:48:08.494Z,12.30
2022-10-18T22:50:35.338Z,12.30
2022-10-18T22:53:02.283Z,12.20
2022-10-18T22:55:29.142Z,12.20
2022-10-18T22:57:56.445Z,12.20
2022-10-18T23:00:23.424Z,12.20
2022-10-18T23:02:50.469Z,12.10
2022-10-18T23:05:17.430Z,12.10
2022-10-18T23:07:49.010Z,12.10
2022-10-18T23:10:16.042Z,12.10
2022-10-18T23:12:42.898Z,12.10
2022-10-18T23:15:10.194Z,12.00
2022-10-18T23:17:37.417Z,12.00
2022-10-18T23:20:05.472Z,12.00
2022-10-18T23:22:32.663Z,12.00
2022-10-18T23:24:59.734Z,12.00
2022-10-18T23:27:27.922Z,11.90
2022-10-18T23:29:54.829Z,11.90
2022-10-18T23:32:21.697Z,11.90
2022-10-18T23:34:48.683Z,11.90
2022-10-18T23:37:15.534Z,11.90
2022-10-18T23:39:42.458Z,11.90
2022-10-18T23:42:09.313Z,11.80
2022-10-18T23:44:36.311Z,11.80
2022-10-18T23:47:03.142Z,11.80
2022-10-18T23:49:30.331Z,11.80
2022-10-18T23:51:57.209Z,11.80
2022-10-18T23:54:24.119Z,11.80
2022-10-18T23:56:51.062Z,11.80
2022-10-18T23:59:17.928Z,11.80
